sensor_id;sensor_type;location;lat;lon;timestamp;pressure;altitude;pressure_sealevel;temperature;humidity
20755;BME280;26385;48.470;7.938;2022-09-24T00:01:16;99629.22;;;14.59;79.09
20755;BME280;26385;48.470;7.938;2022-09-24T00:03:43;99633.63;;;14.48;78.72
20755;BME280;26385;48.470;7.938;2022-09-24T00:06:14;99628.41;;;14.40;79.45
20755;BME280;26385;48.470;7.938;2022-09-24T00:08:47;99621.47;;;14.41;79.08
20755;BME280;26385;48.470;7.938;2022-09-24T00:11:13;99611.00;;;14.53;79.18
20755;BME280;26385;48.470;7.938;2022-09-24T00:13:39;99608.41;;;14.44;79.16
20755;BME280;26385;48.470;7.938;2022-09-24T00:16:07;99605.78;;;14.53;78.99
20755;BME280;26385;48.470;7.938;2022-09-24T00:18:33;99611.88;;;14.56;78.23
20755;BME280;26385;48.470;7.938;2022-09-24T00:20:59;99617.06;;;14.58;78.16
20755;BME280;26385;48.470;7.938;2022-09-24T00:23:24;99618.81;;;14.59;77.84
20755;BME280;26385;48.470;7.938;2022-09-24T00:25:50;99614.41;;;14.70;77.94
20755;BME280;26385;48.470;7.938;2022-09-24T00:28:34;99605.69;;;14.80;76.95
20755;BME280;26385;48.470;7.938;2022-09-24T00:31:03;99607.47;;;14.66;77.39
20755;BME280;26385;48.470;7.938;2022-09-24T00:33:31;99598.00;;;14.50;78.31
20755;BME280;26385;48.470;7.938;2022-09-24T00:36:02;99599.72;;;14.55;77.86
20755;BME280;26385;48.470;7.938;2022-09-24T00:38:29;99595.34;;;14.54;77.87
20755;BME280;26385;48.470;7.938;2022-09-24T00:40:55;99595.38;;;14.56;77.96
20755;BME280;26385;48.470;7.938;2022-09-24T00:48:42;99593.53;;;14.76;77.20
20755;BME280;26385;48.470;7.938;2022-09-24T00:51:10;99583.13;;;14.70;77.36
20755;BME280;26385;48.470;7.938;2022-09-24T00:53:38;99585.72;;;14.70;77.51
20755;BME280;26385;48.470;7.938;2022-09-24T00:56:04;99582.22;;;14.76;77.30
20755;BME280;26385;48.470;7.938;2022-09-24T00:58:32;99578.75;;;14.80;76.99
20755;BME280;26385;48.470;7.938;2022-09-24T01:01:02;99571.78;;;14.82;76.99
20755;BME280;26385;48.470;7.938;2022-09-24T01:03:29;99570.88;;;14.84;76.93
20755;BME280;26385;48.470;7.938;2022-09-24T01:05:56;99567.47;;;14.73;76.89
20755;BME280;26385;48.470;7.938;2022-09-24T01:08:22;99574.44;;;14.70;77.55
20755;BME280;26385;48.470;7.938;2022-09-24T01:21:54;99571.09;;;14.35;79.64
20755;BME280;26385;48.470;7.938;2022-09-24T01:24:51;99577.16;;;14.50;78.83
20755;BME280;26385;48.470;7.938;2022-09-24T01:30:28;99574.59;;;14.28;79.57
20755;BME280;26385;48.470;7.938;2022-09-24T01:33:02;99557.22;;;14.38;79.72
20755;BME280;26385;48.470;7.938;2022-09-24T01:35:33;99560.72;;;14.29;79.84
20755;BME280;26385;48.470;7.938;2022-09-24T01:38:02;99565.13;;;14.07;80.59
20755;BME280;26385;48.470;7.938;2022-09-24T01:40:29;99559.94;;;14.01;81.37
20755;BME280;26385;48.470;7.938;2022-09-24T01:42:57;99566.03;;;13.99;81.66
20755;BME280;26385;48.470;7.938;2022-09-24T01:45:25;99566.84;;;14.16;81.13
20755;BME280;26385;48.470;7.938;2022-09-24T01:47:54;99567.69;;;14.12;80.82
20755;BME280;26385;48.470;7.938;2022-09-24T01:50:19;99563.41;;;14.08;81.43
20755;BME280;26385;48.470;7.938;2022-09-24T01:52:52;99567.72;;;14.09;81.32
20755;BME280;26385;48.470;7.938;2022-09-24T01:55:23;99563.44;;;13.87;82.31
20755;BME280;26385;48.470;7.938;2022-09-24T01:57:54;99567.78;;;13.85;82.48
20755;BME280;26385;48.470;7.938;2022-09-24T02:00:21;99557.38;;;13.89;82.73
20755;BME280;26385;48.470;7.938;2022-09-24T02:03:12;99556.53;;;13.73;83.28
20755;BME280;26385;48.470;7.938;2022-09-24T02:05:47;99562.59;;;13.75;82.36
20755;BME280;26385;48.470;7.938;2022-09-24T02:08:20;99564.28;;;13.98;82.56
20755;BME280;26385;48.470;7.938;2022-09-24T02:11:11;99548.69;;;13.98;81.59
20755;BME280;26385;48.470;7.938;2022-09-24T02:13:44;99550.41;;;13.99;81.63
20755;BME280;26385;48.470;7.938;2022-09-24T02:16:13;99547.75;;;14.03;81.00
20755;BME280;26385;48.470;7.938;2022-09-24T02:18:45;99546.94;;;13.95;81.48
20755;BME280;26385;48.470;7.938;2022-09-24T02:21:14;99545.19;;;14.06;81.25
20755;BME280;26385;48.470;7.938;2022-09-24T02:23:46;99548.69;;;13.89;81.70
20755;BME280;26385;48.470;7.938;2022-09-24T02:26:15;99549.56;;;13.91;81.87
20755;BME280;26385;48.470;7.938;2022-09-24T02:28:40;99550.34;;;14.16;80.60
20755;BME280;26385;48.470;7.938;2022-09-24T02:31:10;99553.75;;;14.28;79.51
20755;BME280;26385;48.470;7.938;2022-09-24T02:33:40;99549.44;;;14.26;79.56
20755;BME280;26385;48.470;7.938;2022-09-24T02:36:24;99536.38;;;14.33;79.22
20755;BME280;26385;48.470;7.938;2022-09-24T02:38:50;99549.38;;;14.36;79.54
20755;BME280;26385;48.470;7.938;2022-09-24T02:41:16;99542.44;;;14.35;79.40
20755;BME280;26385;48.470;7.938;2022-09-24T02:43:42;99536.41;;;14.30;80.12
20755;BME280;26385;48.470;7.938;2022-09-24T02:46:08;99545.09;;;14.20;79.65
20755;BME280;26385;48.470;7.938;2022-09-24T02:48:35;99541.66;;;14.12;80.49
20755;BME280;26385;48.470;7.938;2022-09-24T02:51:00;99547.78;;;14.02;81.17
20755;BME280;26385;48.470;7.938;2022-09-24T02:53:28;99540.84;;;14.07;81.34
20755;BME280;26385;48.470;7.938;2022-09-24T02:55:54;99531.22;;;14.20;80.40
20755;BME280;26385;48.470;7.938;2022-09-24T02:58:19;99541.63;;;14.24;80.43
20755;BME280;26385;48.470;7.938;2022-09-24T03:00:44;99537.28;;;14.31;80.74
20755;BME280;26385;48.470;7.938;2022-09-24T03:03:10;99543.38;;;14.19;81.06
20755;BME280;26385;48.470;7.938;2022-09-24T03:05:35;99545.06;;;14.28;80.40
20755;BME280;26385;48.470;7.938;2022-09-24T03:08:00;99544.25;;;14.18;80.87
20755;BME280;26385;48.470;7.938;2022-09-24T03:10:25;99545.94;;;14.28;80.96
20755;BME280;26385;48.470;7.938;2022-09-24T03:12:51;99544.25;;;14.21;81.22
20755;BME280;26385;48.470;7.938;2022-09-24T03:15:16;99544.22;;;14.26;81.85
20755;BME280;26385;48.470;7.938;2022-09-24T03:17:41;99544.28;;;14.15;81.81
20755;BME280;26385;48.470;7.938;2022-09-24T03:20:07;99544.28;;;14.15;82.16
20755;BME280;26385;48.470;7.938;2022-09-24T03:22:32;99542.56;;;14.08;81.98
20755;BME280;26385;48.470;7.938;2022-09-24T03:24:57;99533.00;;;14.13;82.20
20755;BME280;26385;48.470;7.938;2022-09-24T03:27:23;99539.13;;;13.94;83.03
20755;BME280;26385;48.470;7.938;2022-09-24T03:29:48;99527.00;;;13.85;83.38
20755;BME280;26385;48.470;7.938;2022-09-24T03:32:32;99531.34;;;13.85;83.44
20755;BME280;26385;48.470;7.938;2022-09-24T03:34:58;99522.69;;;13.79;84.04
20755;BME280;26385;48.470;7.938;2022-09-24T03:37:25;99526.19;;;13.74;84.45
20755;BME280;26385;48.470;7.938;2022-09-24T03:39:50;99531.31;;;13.98;83.16
20755;BME280;26385;48.470;7.938;2022-09-24T03:42:15;99529.59;;;13.93;83.45
20755;BME280;26385;48.470;7.938;2022-09-24T03:44:41;99525.25;;;13.86;83.58
20755;BME280;26385;48.470;7.938;2022-09-24T03:47:06;99524.44;;;13.74;84.60
20755;BME280;26385;48.470;7.938;2022-09-24T03:49:32;99515.69;;;14.00;83.32
20755;BME280;26385;48.470;7.938;2022-09-24T03:51:57;99515.66;;;14.01;83.49
20755;BME280;26385;48.470;7.938;2022-09-24T03:54:22;99504.38;;;14.08;82.50
20755;BME280;26385;48.470;7.938;2022-09-24T03:56:48;99506.19;;;13.85;84.55
20755;BME280;26385;48.470;7.938;2022-09-24T03:59:13;99503.56;;;13.93;83.74
20755;BME280;26385;48.470;7.938;2022-09-24T04:01:38;99493.16;;;13.91;83.92
20755;BME280;26385;48.470;7.938;2022-09-24T04:04:03;99489.56;;;14.12;83.23
20755;BME280;26385;48.470;7.938;2022-09-24T04:06:30;99492.25;;;14.01;83.55
20755;BME280;26385;48.470;7.938;2022-09-24T04:08:55;99495.75;;;13.96;84.21
20755;BME280;26385;48.470;7.938;2022-09-24T04:11:21;99493.13;;;13.99;84.70
20755;BME280;26385;48.470;7.938;2022-09-24T04:13:46;99492.16;;;14.20;83.52
20755;BME280;26385;48.470;7.938;2022-09-24T04:16:12;99489.66;;;14.00;83.77
20755;BME280;26385;48.470;7.938;2022-09-24T04:18:37;99485.28;;;14.03;83.97
20755;BME280;26385;48.470;7.938;2022-09-24T04:21:04;99485.41;;;13.68;86.21
20755;BME280;26385;48.470;7.938;2022-09-24T04:23:29;99485.44;;;13.62;87.20
20755;BME280;26385;48.470;7.938;2022-09-24T04:25:55;99491.47;;;13.70;87.42
20755;BME280;26385;48.470;7.938;2022-09-24T04:28:21;99488.03;;;13.71;87.99
20755;BME280;26385;48.470;7.938;2022-09-24T04:30:46;99479.28;;;13.86;87.02
20755;BME280;26385;48.470;7.938;2022-09-24T04:33:13;99479.22;;;14.00;86.16
20755;BME280;26385;48.470;7.938;2022-09-24T04:35:38;99482.69;;;14.02;86.06
20755;BME280;26385;48.470;7.938;2022-09-24T04:38:04;99480.94;;;14.08;86.06
20755;BME280;26385;48.470;7.938;2022-09-24T04:40:29;99477.41;;;14.17;85.78
20755;BME280;26385;48.470;7.938;2022-09-24T04:42:55;99468.75;;;14.12;85.90
20755;BME280;26385;48.470;7.938;2022-09-24T04:45:21;99472.22;;;14.14;85.81
20755;BME280;26385;48.470;7.938;2022-09-24T04:47:49;99483.50;;;14.16;86.39
20755;BME280;26385;48.470;7.938;2022-09-24T04:50:17;99474.81;;;14.17;86.05
20755;BME280;26385;48.470;7.938;2022-09-24T04:52:43;99480.00;;;14.19;85.92
20755;BME280;26385;48.470;7.938;2022-09-24T04:55:08;99477.34;;;14.32;85.49
20755;BME280;26385;48.470;7.938;2022-09-24T04:57:34;99473.06;;;14.22;85.79
20755;BME280;26385;48.470;7.938;2022-09-24T05:00:00;99473.88;;;14.27;85.77
20755;BME280;26385;48.470;7.938;2022-09-24T05:02:26;99481.78;;;14.14;85.94
20755;BME280;26385;48.470;7.938;2022-09-24T05:04:51;99475.63;;;14.31;85.38
20755;BME280;26385;48.470;7.938;2022-09-24T05:07:16;99483.41;;;14.33;85.51
20755;BME280;26385;48.470;7.938;2022-09-24T05:09:42;99481.72;;;14.24;85.92
20755;BME280;26385;48.470;7.938;2022-09-24T05:12:07;99487.72;;;14.35;85.36
20755;BME280;26385;48.470;7.938;2022-09-24T05:14:32;99478.16;;;14.48;84.64
20755;BME280;26385;48.470;7.938;2022-09-24T05:16:58;99472.81;;;14.67;87.31
20755;BME280;26385;48.470;7.938;2022-09-24T05:19:23;99468.34;;;14.82;86.80
20755;BME280;26385;48.470;7.938;2022-09-24T05:21:48;99464.84;;;14.89;82.80
20755;BME280;26385;48.470;7.938;2022-09-24T05:24:14;99467.47;;;14.83;83.18
20755;BME280;26385;48.470;7.938;2022-09-24T05:26:39;99463.16;;;14.82;83.05
20755;BME280;26385;48.470;7.938;2022-09-24T05:29:23;99475.16;;;15.02;81.95
20755;BME280;26385;48.470;7.938;2022-09-24T05:31:49;99488.16;;;15.08;81.92
20755;BME280;26385;48.470;7.938;2022-09-24T05:34:14;99482.78;;;15.25;81.50
20755;BME280;26385;48.470;7.938;2022-09-24T05:36:40;99490.59;;;15.26;80.82
20755;BME280;26385;48.470;7.938;2022-09-24T05:39:07;99488.84;;;15.27;81.11
20755;BME280;26385;48.470;7.938;2022-09-24T05:41:33;99485.47;;;15.12;81.99
20755;BME280;26385;48.470;7.938;2022-09-24T05:43:58;99489.81;;;15.15;81.67
20755;BME280;26385;48.470;7.938;2022-09-24T05:46:23;99488.97;;;15.11;81.84
20755;BME280;26385;48.470;7.938;2022-09-24T05:48:49;99496.88;;;15.02;82.56
20755;BME280;26385;48.470;7.938;2022-09-24T05:51:14;99501.25;;;15.00;82.74
20755;BME280;26385;48.470;7.938;2022-09-24T05:53:39;99499.41;;;15.14;82.38
20755;BME280;26385;48.470;7.938;2022-09-24T05:56:05;99502.13;;;14.99;83.08
20755;BME280;26385;48.470;7.938;2022-09-24T05:58:30;99503.00;;;14.95;83.38
20755;BME280;26385;48.470;7.938;2022-09-24T06:00:58;99494.41;;;14.85;83.94
20755;BME280;26385;48.470;7.938;2022-09-24T06:03:25;99496.13;;;14.85;83.96
20755;BME280;26385;48.470;7.938;2022-09-24T06:05:50;99496.16;;;14.83;84.38
20755;BME280;26385;48.470;7.938;2022-09-24T06:08:17;99495.19;;;14.98;83.81
20755;BME280;26385;48.470;7.938;2022-09-24T06:10:44;99495.09;;;15.09;83.36
20755;BME280;26385;48.470;7.938;2022-09-24T06:13:10;99495.91;;;15.12;83.05
20755;BME280;26385;48.470;7.938;2022-09-24T06:15:40;99496.78;;;15.16;83.17
20755;BME280;26385;48.470;7.938;2022-09-24T06:18:06;99497.56;;;15.24;82.93
20755;BME280;26385;48.470;7.938;2022-09-24T06:20:32;99488.94;;;15.17;83.34
20755;BME280;26385;48.470;7.938;2022-09-24T06:22:57;99488.03;;;15.20;83.79
20755;BME280;26385;48.470;7.938;2022-09-24T06:25:24;99495.75;;;15.29;83.45
20755;BME280;26385;48.470;7.938;2022-09-24T06:27:57;99505.41;;;15.23;83.68
20755;BME280;26385;48.470;7.938;2022-09-24T06:30:27;99502.66;;;15.39;83.40
20755;BME280;26385;48.470;7.938;2022-09-24T06:32:53;99500.03;;;15.38;83.16
20755;BME280;26385;48.470;7.938;2022-09-24T06:35:19;99499.25;;;15.31;83.78
20755;BME280;26385;48.470;7.938;2022-09-24T06:37:45;99507.00;;;15.40;83.78
20755;BME280;26385;48.470;7.938;2022-09-24T06:40:10;99511.31;;;15.38;84.39
20755;BME280;26385;48.470;7.938;2022-09-24T06:42:35;99516.50;;;15.47;83.47
20755;BME280;26385;48.470;7.938;2022-09-24T06:45:01;99522.53;;;15.51;83.66
20755;BME280;26385;48.470;7.938;2022-09-24T06:47:27;99523.41;;;15.52;83.35
20755;BME280;26385;48.470;7.938;2022-09-24T06:49:54;99532.13;;;15.51;83.82
20755;BME280;26385;48.470;7.938;2022-09-24T06:52:19;99529.53;;;15.49;84.09
20755;BME280;26385;48.470;7.938;2022-09-24T06:54:44;99528.69;;;15.44;85.59
20755;BME280;26385;48.470;7.938;2022-09-24T06:57:09;99532.13;;;15.51;84.94
20755;BME280;26385;48.470;7.938;2022-09-24T06:59:35;99526.81;;;15.55;84.54
20755;BME280;26385;48.470;7.938;2022-09-24T07:02:00;99531.19;;;15.56;84.91
20755;BME280;26385;48.470;7.938;2022-09-24T07:04:26;99536.38;;;15.62;84.68
20755;BME280;26385;48.470;7.938;2022-09-24T07:06:51;99535.41;;;15.71;84.53
20755;BME280;26385;48.470;7.938;2022-09-24T07:09:35;99530.19;;;15.74;84.85
20755;BME280;26385;48.470;7.938;2022-09-24T07:12:01;99531.88;;;15.76;86.15
20755;BME280;26385;48.470;7.938;2022-09-24T07:14:29;99531.91;;;15.72;87.13
20755;BME280;26385;48.470;7.938;2022-09-24T07:16:54;99539.72;;;15.76;87.66
20755;BME280;26385;48.470;7.938;2022-09-24T07:19:20;99539.75;;;15.73;88.20
20755;BME280;26385;48.470;7.938;2022-09-24T07:21:45;99538.09;;;15.63;89.26
20755;BME280;26385;48.470;7.938;2022-09-24T07:24:10;99543.31;;;15.65;89.92
20755;BME280;26385;48.470;7.938;2022-09-24T07:26:36;99541.63;;;15.58;90.40
20755;BME280;26385;48.470;7.938;2022-09-24T07:29:02;99538.09;;;15.63;90.34
20755;BME280;26385;48.470;7.938;2022-09-24T07:31:28;99535.50;;;15.62;91.01
20755;BME280;26385;48.470;7.938;2022-09-24T07:33:53;99548.75;;;15.40;92.03
20755;BME280;26385;48.470;7.938;2022-09-24T07:36:19;99545.34;;;15.31;93.30
20755;BME280;26385;48.470;7.938;2022-09-24T07:38:44;99544.47;;;15.29;94.12
20755;BME280;26385;48.470;7.938;2022-09-24T07:41:10;99545.38;;;15.26;94.87
20755;BME280;26385;48.470;7.938;2022-09-24T07:43:36;99556.72;;;15.22;95.05
20755;BME280;26385;48.470;7.938;2022-09-24T07:46:01;99551.34;;;15.37;94.31
20755;BME280;26385;48.470;7.938;2022-09-24T07:48:26;99540.13;;;15.28;95.38
20755;BME280;26385;48.470;7.938;2022-09-24T07:50:52;99546.31;;;15.17;95.34
20755;BME280;26385;48.470;7.938;2022-09-24T07:53:17;99549.81;;;15.15;96.13
20755;BME280;26385;48.470;7.938;2022-09-24T07:55:42;99554.09;;;15.25;95.98
20755;BME280;26385;48.470;7.938;2022-09-24T07:58:10;99548.00;;;15.23;96.73
20755;BME280;26385;48.470;7.938;2022-09-24T08:00:37;99550.59;;;15.26;96.81
20755;BME280;26385;48.470;7.938;2022-09-24T08:03:03;99550.50;;;15.35;96.91
20755;BME280;26385;48.470;7.938;2022-09-24T08:05:29;99548.75;;;15.40;96.11
20755;BME280;26385;48.470;7.938;2022-09-24T08:07:55;99548.69;;;15.43;95.95
20755;BME280;26385;48.470;7.938;2022-09-24T08:10:22;99548.66;;;15.49;96.53
20755;BME280;26385;48.470;7.938;2022-09-24T08:12:48;99549.16;;;15.88;97.50
20755;BME280;26385;48.470;7.938;2022-09-24T08:15:13;99539.50;;;15.98;95.23
20755;BME280;26385;48.470;7.938;2022-09-24T08:17:40;99549.00;;;16.02;93.93
20755;BME280;26385;48.470;7.938;2022-09-24T08:20:05;99560.25;;;16.09;93.61
20755;BME280;26385;48.470;7.938;2022-09-24T08:22:32;99559.41;;;16.08;92.85
20755;BME280;26385;48.470;7.938;2022-09-24T08:24:57;99562.72;;;16.21;93.21
20755;BME280;26385;48.470;7.938;2022-09-24T08:27:23;99564.56;;;16.13;93.14
20755;BME280;26385;48.470;7.938;2022-09-24T08:29:49;99566.31;;;16.11;93.62
20755;BME280;26385;48.470;7.938;2022-09-24T08:32:15;99567.94;;;16.24;93.97
20755;BME280;26385;48.470;7.938;2022-09-24T08:34:41;99570.25;;;16.45;91.44
20755;BME280;26385;48.470;7.938;2022-09-24T08:37:07;99576.34;;;16.46;90.82
20755;BME280;26385;48.470;7.938;2022-09-24T08:39:32;99570.34;;;16.41;92.06
20755;BME280;26385;48.470;7.938;2022-09-24T08:44:50;99570.78;;;16.02;93.82
20755;BME280;26385;48.470;7.938;2022-09-24T08:47:53;99574.22;;;16.04;94.61
20755;BME280;26385;48.470;7.938;2022-09-24T08:50:24;99571.53;;;16.12;94.73
20755;BME280;26385;48.470;7.938;2022-09-24T08:55:46;99573.16;;;16.24;94.55
20755;BME280;26385;48.470;7.938;2022-09-24T09:01:10;99565.38;;;16.18;95.24
20755;BME280;26385;48.470;7.938;2022-09-24T09:03:48;99575.56;;;16.41;93.81
20755;BME280;26385;48.470;7.938;2022-09-24T09:09:16;99576.66;;;16.23;94.83
20755;BME280;26385;48.470;7.938;2022-09-24T09:11:46;99579.19;;;16.27;94.60
20755;BME280;26385;48.470;7.938;2022-09-24T09:19:53;99576.03;;;16.72;92.12
20755;BME280;26385;48.470;7.938;2022-09-24T09:22:21;99574.09;;;16.86;92.22
20755;BME280;26385;48.470;7.938;2022-09-24T09:24:50;99570.72;;;16.78;92.50
20755;BME280;26385;48.470;7.938;2022-09-24T09:27:17;99572.47;;;16.79;91.09
20755;BME280;26385;48.470;7.938;2022-09-24T09:29:46;99566.31;;;16.83;91.72
20755;BME280;26385;48.470;7.938;2022-09-24T09:35:02;99565.44;;;16.81;90.82
20755;BME280;26385;48.470;7.938;2022-09-24T09:37:42;99576.78;;;16.81;90.71
20755;BME280;26385;48.470;7.938;2022-09-24T09:43:02;99580.28;;;16.80;90.98
20755;BME280;26385;48.470;7.938;2022-09-24T09:48:30;99583.66;;;16.88;91.94
20755;BME280;26385;48.470;7.938;2022-09-24T09:51:04;99585.50;;;16.83;92.02
20755;BME280;26385;48.470;7.938;2022-09-24T09:53:31;99582.72;;;16.94;91.27
20755;BME280;26385;48.470;7.938;2022-09-24T09:56:06;99582.78;;;16.91;92.38
20755;BME280;26385;48.470;7.938;2022-09-24T09:58:44;99582.66;;;16.97;92.51
20755;BME280;26385;48.470;7.938;2022-09-24T10:01:14;99573.03;;;17.01;91.38
20755;BME280;26385;48.470;7.938;2022-09-24T10:03:47;99575.41;;;17.16;90.43
20755;BME280;26385;48.470;7.938;2022-09-24T10:06:22;99579.00;;;17.09;89.73
20755;BME280;26385;48.470;7.938;2022-09-24T10:08:48;99578.06;;;17.13;89.36
20755;BME280;26385;48.470;7.938;2022-09-24T10:11:15;99583.34;;;17.10;89.12
20755;BME280;26385;48.470;7.938;2022-09-24T10:13:40;99581.66;;;17.06;89.41
20755;BME280;26385;48.470;7.938;2022-09-24T10:16:08;99582.53;;;17.08;89.13
20755;BME280;26385;48.470;7.938;2022-09-24T10:18:47;99577.25;;;17.09;88.87
20755;BME280;26385;48.470;7.938;2022-09-24T10:23:49;99574.28;;;17.31;87.20
20755;BME280;26385;48.470;7.938;2022-09-24T10:26:15;99577.00;;;17.26;86.77
20755;BME280;26385;48.470;7.938;2022-09-24T10:28:50;99578.63;;;17.32;87.44
20755;BME280;26385;48.470;7.938;2022-09-24T10:31:37;99572.41;;;17.40;86.79
20755;BME280;26385;48.470;7.938;2022-09-24T10:34:04;99568.75;;;17.51;86.70
20755;BME280;26385;48.470;7.938;2022-09-24T10:36:49;99573.16;;;17.47;86.35
20755;BME280;26385;48.470;7.938;2022-09-24T10:39:15;99572.13;;;17.57;85.59
20755;BME280;26385;48.470;7.938;2022-09-24T10:41:49;99566.03;;;17.55;86.08
20755;BME280;26385;48.470;7.938;2022-09-24T10:44:15;99569.53;;;17.54;85.99
20755;BME280;26385;48.470;7.938;2022-09-24T10:53:06;99559.31;;;17.39;85.38
20755;BME280;26385;48.470;7.938;2022-09-24T10:55:49;99569.63;;;17.48;85.00
20755;BME280;26385;48.470;7.938;2022-09-24T11:01:25;99561.16;;;17.34;87.39
20755;BME280;26385;48.470;7.938;2022-09-24T11:10:00;99558.00;;;17.64;86.82
20755;BME280;26385;48.470;7.938;2022-09-24T11:13:13;99559.72;;;17.65;87.23
20755;BME280;26385;48.470;7.938;2022-09-24T11:16:22;99562.44;;;17.61;85.58
20755;BME280;26385;48.470;7.938;2022-09-24T11:19:14;99555.25;;;17.73;85.05
20755;BME280;26385;48.470;7.938;2022-09-24T11:30:19;99541.53;;;17.59;83.90
20755;BME280;26385;48.470;7.938;2022-09-24T11:35:28;99542.28;;;17.66;82.07
20755;BME280;26385;48.470;7.938;2022-09-24T11:38:15;99546.50;;;17.76;81.16
20755;BME280;26385;48.470;7.938;2022-09-24T11:41:01;99545.03;;;17.57;82.38
20755;BME280;26385;48.470;7.938;2022-09-24T11:46:54;99532.38;;;17.85;81.48
20755;BME280;26385;48.470;7.938;2022-09-24T11:54:25;99528.34;;;18.12;80.64
20755;BME280;26385;48.470;7.938;2022-09-24T11:57:10;99531.31;;;18.37;79.48
20755;BME280;26385;48.470;7.938;2022-09-24T11:59:59;99517.38;;;18.35;79.28
20755;BME280;26385;48.470;7.938;2022-09-24T12:02:53;99514.44;;;18.48;79.27
20755;BME280;26385;48.470;7.938;2022-09-24T12:05:28;99511.53;;;18.62;78.86
20755;BME280;26385;48.470;7.938;2022-09-24T12:08:10;99503.22;;;18.83;77.20
20755;BME280;26385;48.470;7.938;2022-09-24T12:10:43;99493.72;;;18.78;77.61
20755;BME280;26385;48.470;7.938;2022-09-24T12:13:17;99498.59;;;18.92;76.61
20755;BME280;26385;48.470;7.938;2022-09-24T12:15:48;99494.66;;;19.11;76.63
20755;BME280;26385;48.470;7.938;2022-09-24T12:18:30;99489.38;;;19.47;76.43
20755;BME280;26385;48.470;7.938;2022-09-24T12:21:07;99483.75;;;20.22;73.78
20755;BME280;26385;48.470;7.938;2022-09-24T12:23:37;99485.81;;;20.44;71.03
20755;BME280;26385;48.470;7.938;2022-09-24T12:26:04;99480.19;;;20.55;68.91
20755;BME280;26385;48.470;7.938;2022-09-24T12:28:57;99487.38;;;20.49;69.59
20755;BME280;26385;48.470;7.938;2022-09-24T12:34:50;99482.19;;;21.02;66.88
20755;BME280;26385;48.470;7.938;2022-09-24T12:37:24;99477.31;;;21.43;65.56
20755;BME280;26385;48.470;7.938;2022-09-24T12:40:02;99482.16;;;21.55;65.33
20755;BME280;26385;48.470;7.938;2022-09-24T12:42:49;99468.91;;;21.82;62.49
20755;BME280;26385;48.470;7.938;2022-09-24T12:45:19;99460.69;;;22.38;61.48
20755;BME280;26385;48.470;7.938;2022-09-24T12:47:56;99457.31;;;22.78;58.84
20755;BME280;26385;48.470;7.938;2022-09-24T12:50:29;99455.09;;;23.11;58.31
20755;BME280;26385;48.470;7.938;2022-09-24T12:52:55;99463.84;;;22.91;55.91
20755;BME280;26385;48.470;7.938;2022-09-24T12:55:24;99457.03;;;22.86;56.41
20755;BME280;26385;48.470;7.938;2022-09-24T12:58:02;99458.81;;;22.85;56.60
20755;BME280;26385;48.470;7.938;2022-09-24T13:02:57;99447.69;;;23.19;53.98
20755;BME280;26385;48.470;7.938;2022-09-24T13:08:22;99453.53;;;23.89;53.49
20755;BME280;26385;48.470;7.938;2022-09-24T13:11:28;99440.81;;;23.97;50.05
20755;BME280;26385;48.470;7.938;2022-09-24T13:14:18;99443.72;;;23.91;49.93
20755;BME280;26385;48.470;7.938;2022-09-24T13:16:47;99436.91;;;23.66;50.29
20755;BME280;26385;48.470;7.938;2022-09-24T13:19:22;99435.50;;;23.57;50.69
20755;BME280;26385;48.470;7.938;2022-09-24T13:21:59;99433.81;;;24.14;49.79
20755;BME280;26385;48.470;7.938;2022-09-24T13:24:31;99425.72;;;23.80;47.79
20755;BME280;26385;48.470;7.938;2022-09-24T13:32:37;99414.41;;;23.95;47.04
20755;BME280;26385;48.470;7.938;2022-09-24T13:35:10;99418.75;;;23.96;46.92
20755;BME280;26385;48.470;7.938;2022-09-24T13:37:41;99419.06;;;23.71;51.88
20755;BME280;26385;48.470;7.938;2022-09-24T13:40:27;99398.09;;;24.04;51.90
20755;BME280;26385;48.470;7.938;2022-09-24T13:43:09;99405.50;;;23.98;50.98
20755;BME280;26385;48.470;7.938;2022-09-24T13:45:38;99402.91;;;24.15;50.71
20755;BME280;26385;48.470;7.938;2022-09-24T13:48:17;99414.22;;;23.20;50.25
20755;BME280;26385;48.470;7.938;2022-09-24T13:50:48;99407.97;;;23.22;50.39
20755;BME280;26385;48.470;7.938;2022-09-24T13:53:24;99408.81;;;23.23;51.68
20755;BME280;26385;48.470;7.938;2022-09-24T13:55:54;99401.00;;;22.77;51.51
20755;BME280;26385;48.470;7.938;2022-09-24T13:58:35;99395.72;;;22.77;51.15
20755;BME280;26385;48.470;7.938;2022-09-24T14:01:16;99393.56;;;23.29;50.72
20755;BME280;26385;48.470;7.938;2022-09-24T14:03:52;99395.97;;;23.54;50.49
20755;BME280;26385;48.470;7.938;2022-09-24T14:06:31;99391.94;;;23.66;50.58
20755;BME280;26385;48.470;7.938;2022-09-24T14:08:57;99397.91;;;23.10;50.28
20755;BME280;26385;48.470;7.938;2022-09-24T14:11:23;99389.38;;;23.03;51.04
20755;BME280;26385;48.470;7.938;2022-09-24T14:13:49;99392.97;;;22.81;52.08
20755;BME280;26385;48.470;7.938;2022-09-24T14:16:19;99399.06;;;22.61;52.24
20755;BME280;26385;48.470;7.938;2022-09-24T14:18:45;99397.84;;;22.47;51.72
20755;BME280;26385;48.470;7.938;2022-09-24T14:23:51;99393.13;;;22.12;51.68
20755;BME280;26385;48.470;7.938;2022-09-24T14:26:27;99382.50;;;22.13;50.78
20755;BME280;26385;48.470;7.938;2022-09-24T14:28:57;99385.38;;;22.07;51.48
20755;BME280;26385;48.470;7.938;2022-09-24T14:31:23;99385.75;;;22.20;51.52
20755;BME280;26385;48.470;7.938;2022-09-24T14:33:49;99381.28;;;21.99;51.92
20755;BME280;26385;48.470;7.938;2022-09-24T14:36:14;99390.47;;;21.88;52.06
20755;BME280;26385;48.470;7.938;2022-09-24T14:41:23;99388.31;;;21.51;54.20
20755;BME280;26385;48.470;7.938;2022-09-24T14:43:57;99389.47;;;21.18;55.80
20755;BME280;26385;48.470;7.938;2022-09-24T14:46:24;99396.31;;;20.98;56.93
20755;BME280;26385;48.470;7.938;2022-09-24T14:48:51;99397.34;;;20.93;57.19
20755;BME280;26385;48.470;7.938;2022-09-24T14:51:29;99393.94;;;20.91;57.53
20755;BME280;26385;48.470;7.938;2022-09-24T14:54:17;99389.44;;;20.94;57.51
20755;BME280;26385;48.470;7.938;2022-09-24T14:56:43;99385.69;;;20.75;56.86